Time;durP1;ratioP1;P1;durP2;ratioP2;P2;SDS_P1;SDS_P2;PMS_P1;PMS_P2;Temp;Humidity;BMP_temperature;BMP_pressure;BME280_temperature;BME280_humidity;BME280_pressure;Samples;Min_cycle;Max_cycle;Signal;HPM_P1;HPM_P2
2022/02/09 00:02:06;;;;;;;2.40;1.63;;;;;;;5.93;67.67;97637.97;5081380;28;20204;-71
2022/02/09 00:04:39;;;;;;;6.00;1.50;;;;;;;5.94;67.96;97638.78;5081554;28;20204;-71
2022/02/09 00:07:11;;;;;;;2.13;1.50;;;;;;;5.99;67.77;97636.66;5082274;28;20208;-71
2022/02/09 00:09:40;;;;;;;3.60;2.03;;;;;;;5.62;67.30;97637.69;5081761;28;20502;-71
2022/02/09 00:12:15;;;;;;;5.17;1.33;;;;;;;5.58;67.35;97631.84;5081354;28;20587;-71
2022/02/09 00:14:50;;;;;;;6.17;1.77;;;;;;;5.64;68.45;97630.59;5081734;28;20199;-71
2022/02/09 00:17:31;;;;;;;3.30;1.53;;;;;;;5.64;68.82;97635.81;5081032;28;20234;-71
2022/02/09 00:20:34;;;;;;;2.60;1.20;;;;;;;5.81;68.00;97636.25;5081799;28;20223;-71
2022/02/09 00:28:28;;;;;;;5.97;2.10;;;;;;;5.72;67.81;97628.22;5080980;28;20215;-71
2022/02/09 00:36:53;;;;;;;1.17;1.00;;;;;;;5.38;69.64;97651.72;5080936;28;20281;-71
2022/02/09 00:39:39;;;;;;;3.10;1.53;;;;;;;5.56;67.66;97619.84;5080818;28;20220;-71
2022/02/09 00:42:21;;;;;;;1.70;0.80;;;;;;;5.63;67.41;97624.50;5080413;28;20645;-71
2022/02/09 00:45:08;;;;;;;0.77;0.73;;;;;;;5.49;68.52;97629.09;5080662;28;20495;-71
2022/02/09 01:33:01;;;;;;;1.47;1.13;;;;;;;5.78;66.70;97622.56;5079804;28;20677;-71
2022/02/09 01:38:05;;;;;;;3.37;1.60;;;;;;;5.58;68.19;97641.50;5079769;28;20500;-71
2022/02/09 01:41:13;;;;;;;3.97;1.43;;;;;;;5.51;66.76;97630.66;5080081;28;20258;-71
2022/02/09 01:57:13;;;;;;;5.07;2.03;;;;;;;5.65;68.17;97616.53;5078974;28;20257;-71
2022/02/09 01:59:41;;;;;;;2.87;1.77;;;;;;;5.45;68.61;97614.59;5078490;28;20586;-71
2022/02/09 02:02:08;;;;;;;1.23;1.13;;;;;;;5.28;68.84;97617.56;5078715;28;20196;-71
2022/02/09 02:04:35;;;;;;;5.33;1.73;;;;;;;5.26;69.26;97619.47;5078355;28;20502;-71
2022/02/09 02:07:07;;;;;;;4.37;1.83;;;;;;;5.30;69.89;97607.84;5079219;28;20210;-71
2022/02/09 02:09:36;;;;;;;3.53;1.50;;;;;;;5.09;68.71;97619.88;5078820;28;20231;-71
2022/02/09 02:12:10;;;;;;;1.10;0.73;;;;;;;5.14;68.61;97617.78;5078937;28;20219;-71
2022/02/09 02:14:41;;;;;;;2.80;1.50;;;;;;;5.03;69.79;97616.88;5078045;28;20199;-71
2022/02/09 02:17:15;;;;;;;2.40;1.23;;;;;;;5.00;69.20;97606.63;5079201;28;20203;-71
2022/02/09 02:19:45;;;;;;;2.33;1.27;;;;;;;4.83;69.41;97610.44;5078866;28;20523;-71
2022/02/09 02:22:32;;;;;;;2.23;1.27;;;;;;;4.73;69.65;97592.09;5075944;28;20216;-71
2022/02/09 02:28:18;;;;;;;1.43;1.10;;;;;;;4.59;70.33;97589.63;5076205;28;20207;-71
2022/02/09 02:31:17;;;;;;;1.93;1.33;;;;;;;4.53;69.73;97584.84;5078213;28;20206;-71
2022/02/09 02:39:44;;;;;;;1.20;0.90;;;;;;;4.41;70.74;97585.72;5078033;28;20726;-71
2022/02/09 02:43:13;;;;;;;3.40;1.27;;;;;;;4.23;70.63;97579.16;5077575;28;21648;-71
2022/02/09 03:10:47;;;;;;;2.10;1.20;;;;;;;3.72;72.76;97564.47;5077797;28;20813;-71
2022/02/09 03:13:18;;;;;;;2.40;1.00;;;;;;;3.82;73.32;97560.31;5076997;28;20315;-71
2022/02/09 03:15:50;;;;;;;3.43;1.07;;;;;;;3.69;73.02;97559.47;5078853;28;20196;-71
2022/02/09 03:18:38;;;;;;;4.00;0.60;;;;;;;3.62;72.83;97555.59;5077838;28;20207;-71
2022/02/09 03:21:16;;;;;;;1.27;0.73;;;;;;;3.41;73.72;97557.97;5078243;28;20199;-71
2022/02/09 03:23:47;;;;;;;0.90;0.60;;;;;;;3.45;73.92;97549.00;5076822;28;20214;-71
2022/02/09 03:43:01;;;;;;;1.27;1.17;;;;;;;3.14;75.61;97549.38;5076603;28;20711;-71
2022/02/09 03:48:25;;;;;;;1.27;1.17;;;;;;;3.23;74.26;97561.78;5077382;28;20203;-71
2022/02/09 03:53:54;;;;;;;1.70;1.23;;;;;;;3.46;73.75;97548.06;5069731;28;20331;-71
2022/02/09 03:56:30;;;;;;;1.53;1.43;;;;;;;3.20;74.51;97554.19;5077396;28;20209;-71
2022/02/09 03:58:57;;;;;;;2.27;0.73;;;;;;;3.24;74.57;97553.88;5077093;28;20276;-71
2022/02/09 04:01:29;;;;;;;0.87;0.87;;;;;;;3.49;74.29;97558.28;5077306;28;20215;-71
2022/02/09 04:03:56;;;;;;;3.50;1.10;;;;;;;3.43;73.83;97563.94;5077099;28;20553;-71
2022/02/09 04:06:22;;;;;;;3.80;2.30;;;;;;;3.49;73.97;97560.88;5077800;28;20210;-71
2022/02/09 04:08:53;;;;;;;4.30;1.90;;;;;;;3.45;74.10;97559.44;5076860;28;20410;-71
2022/02/09 04:11:25;;;;;;;2.07;1.77;;;;;;;3.57;74.02;97556.84;5076938;28;20228;-71
2022/02/09 04:14:00;;;;;;;4.87;3.10;;;;;;;3.57;73.81;97549.03;5076358;28;20265;-71
2022/02/09 04:16:55;;;;;;;1.37;1.00;;;;;;;3.49;74.34;97542.66;5078123;28;20214;-71
2022/02/09 04:19:31;;;;;;;1.23;1.20;;;;;;;3.28;74.18;97544.09;5080764;28;20232;-71
2022/02/09 04:38:36;;;;;;;5.07;2.70;;;;;;;3.04;75.26;97533.53;5074827;28;20214;-71
2022/02/09 04:41:33;;;;;;;6.33;2.20;;;;;;;2.98;75.64;97535.69;5082246;28;20706;-71
2022/02/09 04:49:41;;;;;;;6.80;2.33;;;;;;;3.13;75.94;97532.91;5082618;28;20291;-71
2022/02/09 04:52:39;;;;;;;3.07;1.53;;;;;;;3.14;75.56;97538.94;5082652;28;20219;-71
2022/02/09 04:55:27;;;;;;;1.50;1.10;;;;;;;3.33;75.41;97529.00;5081900;28;20200;-70
2022/02/09 04:57:58;;;;;;;5.43;2.40;;;;;;;3.30;75.13;97524.81;5082420;28;20367;-71
2022/02/09 05:00:32;;;;;;;7.97;2.50;;;;;;;3.26;75.02;97514.69;5081886;28;20242;-71
2022/02/09 05:25:13;;;;;;;1.00;0.90;;;;;;;2.43;78.25;97521.09;5062431;28;20206;-71
2022/02/09 05:27:51;;;;;;;0.80;0.80;;;;;;;2.52;78.06;97513.56;5079488;28;20203;-70
2022/02/09 05:30:17;;;;;;;1.13;0.67;;;;;;;2.54;77.43;97521.25;5079750;28;20227;-70
2022/02/09 05:32:44;;;;;;;4.23;1.00;;;;;;;2.31;77.87;97514.06;5078526;28;20227;-70
2022/02/09 05:35:10;;;;;;;2.57;1.43;;;;;;;2.43;77.57;97519.34;5079374;28;20214;-70
2022/02/09 05:37:38;;;;;;;2.63;1.03;;;;;;;2.37;79.76;97525.84;5079186;28;20223;-71
2022/02/09 05:40:06;;;;;;;1.50;1.33;;;;;;;2.45;78.89;97527.88;5079190;28;20225;-71
2022/02/09 05:42:33;;;;;;;1.33;1.23;;;;;;;2.25;79.28;97526.63;5078552;28;20718;-71
2022/02/09 05:45:04;;;;;;;3.20;1.43;;;;;;;2.39;78.48;97526.59;5078521;28;20204;-71
2022/02/09 05:50:25;;;;;;;0.50;0.50;;;;;;;2.22;79.98;97532.84;5078524;28;20287;-70
2022/02/09 05:53:06;;;;;;;1.20;0.80;;;;;;;2.57;79.50;97531.47;5078232;28;20222;-70
2022/02/09 05:55:47;;;;;;;3.70;1.87;;;;;;;2.30;78.72;97542.78;5078887;28;20518;-71
2022/02/09 05:58:32;;;;;;;1.03;0.83;;;;;;;2.28;78.93;97539.44;5078208;28;20671;-71
2022/02/09 06:01:00;;;;;;;1.03;0.93;;;;;;;2.38;79.25;97541.38;5079374;28;20200;-71
2022/02/09 06:03:26;;;;;;;1.73;1.60;;;;;;;2.41;79.40;97543.78;5077592;28;20663;-71
2022/02/09 06:05:53;;;;;;;1.47;1.20;;;;;;;2.25;79.80;97542.22;5078716;28;20564;-71
2022/02/09 06:08:23;;;;;;;5.13;1.67;;;;;;;2.44;79.80;97535.78;5079052;28;20226;-71
2022/02/09 06:10:53;;;;;;;2.50;1.40;;;;;;;2.40;78.97;97542.94;5078201;28;20200;-72
2022/02/09 06:13:26;;;;;;;2.87;1.97;;;;;;;2.43;79.50;97541.91;5076701;28;20239;-71
2022/02/09 06:16:09;;;;;;;3.37;1.70;;;;;;;2.45;78.69;97542.66;5078084;28;20208;-72
2022/02/09 06:21:21;;;;;;;3.03;1.63;;;;;;;2.41;78.50;97544.59;5076570;28;20951;-71
2022/02/09 06:23:49;;;;;;;1.20;1.10;;;;;;;2.46;78.35;97541.72;5077262;28;20673;-70
2022/02/09 06:26:16;;;;;;;0.90;0.90;;;;;;;2.39;77.90;97539.59;5078712;28;20213;-71
2022/02/09 06:28:44;;;;;;;1.77;1.50;;;;;;;2.36;78.10;97542.41;5077828;28;20223;-71
2022/02/09 06:31:10;;;;;;;1.03;1.00;;;;;;;2.32;77.64;97541.75;5077922;28;20213;-71
2022/02/09 06:33:37;;;;;;;3.20;2.07;;;;;;;2.40;77.88;97542.94;5077877;28;20219;-72
2022/02/09 06:36:06;;;;;;;2.07;1.53;;;;;;;2.34;77.91;97539.06;5078081;28;20200;-71
2022/02/09 06:38:38;;;;;;;1.10;1.00;;;;;;;2.33;78.16;97542.59;5077644;28;20866;-72
2022/02/09 06:41:07;;;;;;;7.23;1.27;;;;;;;2.37;78.29;97544.06;5077976;28;20291;-72
2022/02/09 06:43:34;;;;;;;3.30;2.20;;;;;;;2.40;77.28;97539.50;5077261;28;20200;-71
2022/02/09 06:46:01;;;;;;;2.70;1.63;;;;;;;2.40;78.07;97539.50;5078239;28;21210;-70
2022/02/09 06:48:28;;;;;;;10.57;1.67;;;;;;;2.35;78.26;97538.13;5078303;28;20207;-72
2022/02/09 06:50:58;;;;;;;1.90;1.40;;;;;;;2.47;78.46;97536.44;5077611;28;20201;-72
2022/02/09 06:53:32;;;;;;;1.23;1.13;;;;;;;2.49;78.40;97531.94;5076918;28;20722;-72
2022/02/09 06:56:01;;;;;;;1.10;1.00;;;;;;;2.63;78.67;97538.88;5077684;28;20291;-70
2022/02/09 06:58:55;;;;;;;2.97;1.73;;;;;;;2.65;78.49;97537.84;5077360;28;20207;-70
2022/02/09 07:01:22;;;;;;;1.57;1.17;;;;;;;2.46;78.01;97541.72;5077463;28;20254;-71
2022/02/09 07:03:48;;;;;;;1.20;1.10;;;;;;;2.43;78.69;97549.72;5076391;28;20683;-70
2022/02/09 07:06:15;;;;;;;4.17;2.07;;;;;;;2.66;78.32;97554.28;5076997;28;20208;-71
2022/02/09 07:08:41;;;;;;;2.53;1.27;;;;;;;2.45;79.60;97556.50;5075878;28;20223;-72
2022/02/09 07:11:09;;;;;;;4.80;1.47;;;;;;;2.55;79.38;97548.97;5077023;28;20199;-71
2022/02/09 07:13:37;;;;;;;1.53;1.37;;;;;;;2.94;78.58;97549.00;5075385;28;20816;-70
2022/02/09 07:16:05;;;;;;;5.27;2.50;;;;;;;2.87;78.53;97545.97;5076650;28;20288;-70
2022/02/09 07:18:31;;;;;;;2.00;1.70;;;;;;;2.83;78.52;97538.47;5076610;28;20228;-71
2022/02/09 07:21:03;;;;;;;1.40;1.30;;;;;;;2.78;78.65;97538.75;5076341;28;20241;-71
2022/02/09 07:23:34;;;;;;;1.60;1.17;;;;;;;2.69;78.94;97541.09;5073719;28;20605;-71
2022/02/09 07:26:05;;;;;;;1.40;1.30;;;;;;;3.00;78.59;97546.81;5076931;28;20249;-72
2022/02/09 07:28:32;;;;;;;1.53;1.27;;;;;;;3.03;78.58;97538.84;5076452;28;20601;-70
2022/02/09 07:31:01;;;;;;;3.37;1.63;;;;;;;3.23;78.18;97553.97;5076506;28;20204;-71
2022/02/09 07:33:28;;;;;;;5.63;1.93;;;;;;;3.20;78.45;97534.16;5076538;28;20223;-72
2022/02/09 07:35:55;;;;;;;2.47;1.60;;;;;;;3.25;78.02;97536.47;5075569;28;20835;-71
2022/02/09 07:38:21;;;;;;;2.73;1.77;;;;;;;3.34;77.48;97531.50;5077323;28;20260;-71
2022/02/09 07:40:51;;;;;;;2.37;1.27;;;;;;;3.36;77.84;97528.78;5076750;28;20580;-71
2022/02/09 07:43:22;;;;;;;3.47;1.13;;;;;;;3.36;77.67;97539.19;5075807;28;20678;-70
2022/02/09 07:48:52;;;;;;;2.27;1.57;;;;;;;3.67;77.28;97540.47;5054216;28;21089;-71
2022/02/09 07:51:38;;;;;;;2.13;0.87;;;;;;;3.76;76.95;97542.47;5076985;28;20195;-70
2022/02/09 07:54:05;;;;;;;2.60;1.93;;;;;;;3.65;76.74;97539.75;5079654;28;20241;-71
2022/02/09 07:56:33;;;;;;;4.20;1.90;;;;;;;3.66;76.80;97530.16;5080482;28;20317;-71
2022/02/09 07:59:00;;;;;;;3.13;1.73;;;;;;;3.82;76.75;97533.41;5079865;28;20233;-71
2022/02/09 08:01:27;;;;;;;3.97;1.80;;;;;;;3.91;76.72;97528.38;5080386;28;20200;-71
2022/02/09 08:03:55;;;;;;;13.17;2.17;;;;;;;3.86;75.80;97530.47;5079096;28;20572;-71
2022/02/09 08:06:24;;;;;;;1.07;0.97;;;;;;;3.99;76.04;97528.69;5080930;28;20211;-71
2022/02/09 08:08:51;;;;;;;3.17;1.50;;;;;;;4.02;75.56;97528.50;5080274;28;20242;-71
2022/02/09 08:11:21;;;;;;;3.07;2.23;;;;;;;3.87;75.00;97528.69;5079391;28;20208;-71
2022/02/09 08:27:37;;;;;;;1.33;1.20;;;;;;;4.46;73.98;97523.59;5079865;28;20214;-71
2022/02/09 08:30:19;;;;;;;3.63;2.00;;;;;;;4.50;73.27;97512.81;5079024;28;20219;-73
2022/02/09 08:32:53;;;;;;;1.03;0.93;;;;;;;4.77;72.55;97504.78;5077944;28;20664;-72
2022/02/09 08:35:21;;;;;;;3.00;2.07;;;;;;;5.00;72.85;97505.59;5078322;28;20207;-72
2022/02/09 08:37:47;;;;;;;1.30;0.93;;;;;;;4.55;72.90;97499.44;5078775;28;20666;-72
2022/02/09 08:40:18;;;;;;;2.50;1.40;;;;;;;4.83;72.58;97492.91;5079580;28;20224;-72
2022/02/09 08:42:45;;;;;;;15.50;1.83;;;;;;;4.87;72.59;97490.94;5078576;28;20223;-72
2022/02/09 08:45:11;;;;;;;4.00;1.57;;;;;;;4.93;72.72;97491.31;5079149;28;20223;-72
2022/02/09 08:47:38;;;;;;;11.60;4.70;;;;;;;5.04;72.28;97491.38;5079067;28;20200;-72
2022/02/09 08:50:06;;;;;;;10.90;2.80;;;;;;;5.10;72.31;97483.06;5078852;28;20224;-72
2022/02/09 08:52:34;;;;;;;4.47;2.43;;;;;;;5.34;72.20;97489.06;5078048;28;20255;-72
2022/02/09 08:55:00;;;;;;;3.20;1.33;;;;;;;5.41;72.10;97492.91;5078842;28;20208;-72
2022/02/09 08:57:28;;;;;;;5.00;2.23;;;;;;;5.32;72.12;97482.28;5079347;28;20702;-72
2022/02/09 08:59:55;;;;;;;6.90;1.30;;;;;;;5.47;72.01;97472.38;5077629;28;20238;-72
2022/02/09 09:02:24;;;;;;;3.10;1.47;;;;;;;5.50;71.72;97471.31;5078307;28;20208;-72
2022/02/09 09:04:54;;;;;;;2.53;1.37;;;;;;;5.53;71.24;97473.66;5079247;28;20192;-72
2022/02/09 09:07:22;;;;;;;3.00;2.27;;;;;;;5.84;70.55;97470.41;5079005;28;20801;-72
2022/02/09 09:10:02;;;;;;;1.33;1.13;;;;;;;5.86;68.93;97464.09;5074559;28;20314;-72
2022/02/09 10:02:51;;;;;;;4.37;2.17;;;;;;;7.37;63.06;97465.59;5031567;28;20598;-72
2022/02/09 10:05:50;;;;;;;5.33;1.97;;;;;;;7.57;63.86;97465.56;4955252;28;20215;-72
2022/02/09 10:31:46;;;;;;;4.23;1.97;;;;;;;8.12;60.12;97452.00;5076762;28;20211;-72
2022/02/09 10:34:18;;;;;;;2.63;1.70;;;;;;;8.30;60.69;97439.94;5075410;28;20234;-72
2022/02/09 10:36:49;;;;;;;3.23;1.70;;;;;;;8.42;59.70;97444.13;5076506;28;20204;-72
2022/02/09 10:39:20;;;;;;;1.27;1.17;;;;;;;8.43;58.70;97437.94;5075973;28;20223;-72
2022/02/09 10:41:51;;;;;;;3.63;1.63;;;;;;;8.23;59.17;97431.78;5076967;28;20231;-72
2022/02/09 10:44:20;;;;;;;1.20;1.00;;;;;;;8.20;59.74;97426.78;5075904;28;20196;-72
2022/02/09 10:46:47;;;;;;;3.17;1.73;;;;;;;8.76;59.36;97407.69;5076006;28;20686;-72
2022/02/09 10:49:17;;;;;;;8.03;2.13;;;;;;;9.00;58.48;97408.09;5076345;28;20337;-72
2022/02/09 10:51:48;;;;;;;2.63;1.93;;;;;;;8.81;59.45;97410.72;5076772;28;20206;-72
2022/02/09 10:54:17;;;;;;;8.67;1.83;;;;;;;9.39;58.25;97404.44;5075271;28;21087;-72
2022/02/09 10:56:46;;;;;;;3.53;2.63;;;;;;;9.33;57.78;97405.00;5076290;28;20875;-72
2022/02/09 10:59:14;;;;;;;3.53;1.97;;;;;;;9.44;57.59;97402.22;5076580;28;20231;-72
2022/02/09 11:01:42;;;;;;;4.67;2.00;;;;;;;9.54;57.75;97393.31;5076797;28;20207;-72
2022/02/09 11:04:10;;;;;;;3.07;1.50;;;;;;;9.71;57.62;97405.72;5076138;28;20207;-72
2022/02/09 11:06:40;;;;;;;5.37;2.07;;;;;;;9.77;57.40;97403.34;5077150;28;20204;-72
2022/02/09 11:09:08;;;;;;;3.97;1.50;;;;;;;9.99;56.77;97403.03;5078470;28;20231;-72
2022/02/09 11:11:37;;;;;;;6.87;1.93;;;;;;;10.03;56.20;97404.41;5077811;28;20211;-72
2022/02/09 11:14:04;;;;;;;7.27;1.80;;;;;;;9.81;57.32;97396.84;5076882;28;20301;-72
2022/02/09 11:16:34;;;;;;;12.13;2.03;;;;;;;9.99;56.84;97394.28;5077023;28;20226;-72
2022/02/09 11:19:01;;;;;;;6.70;2.07;;;;;;;9.97;57.21;97391.81;5075884;28;20219;-72
2022/02/09 11:21:32;;;;;;;2.60;1.60;;;;;;;10.41;56.96;97383.97;5075827;28;20672;-72
2022/02/09 11:24:07;;;;;;;5.10;2.37;;;;;;;10.35;57.12;97386.34;5075309;28;20192;-72
2022/02/09 11:26:44;;;;;;;1.73;1.40;;;;;;;10.46;57.16;97372.94;5079050;28;20222;-72
2022/02/09 11:29:32;;;;;;;3.67;2.17;;;;;;;10.72;56.36;97372.06;5080040;28;20314;-72
2022/02/09 11:32:34;;;;;;;2.07;1.73;;;;;;;10.82;56.27;97375.47;5078789;28;20200;-72
2022/02/09 11:35:17;;;;;;;4.77;2.50;;;;;;;10.75;56.66;97374.41;5079643;28;20280;-72
2022/02/09 11:37:52;;;;;;;2.47;1.73;;;;;;;10.81;56.85;97373.81;5081876;28;20227;-72
2022/02/09 11:40:36;;;;;;;4.40;1.70;;;;;;;11.21;56.92;97364.41;5079555;28;20839;-72
2022/02/09 11:43:45;;;;;;;2.00;1.53;;;;;;;11.27;56.56;97366.44;5079742;28;20294;-72
2022/02/09 11:46:28;;;;;;;6.93;2.07;;;;;;;10.91;57.05;97355.25;5079099;28;20204;-72
2022/02/09 11:52:12;;;;;;;5.80;2.33;;;;;;;11.25;55.85;97347.31;5053257;28;20254;-72
2022/02/09 12:00:30;;;;;;;6.07;1.60;;;;;;;11.21;55.01;97340.66;5052069;28;20562;-72
2022/02/09 12:11:47;;;;;;;9.10;1.80;;;;;;;11.66;54.68;97321.03;5051937;28;20223;-72
2022/02/09 12:14:48;;;;;;;3.00;1.60;;;;;;;11.82;53.80;97310.53;5051885;28;20225;-72
2022/02/09 12:17:28;;;;;;;3.60;1.47;;;;;;;11.72;55.27;97314.28;5052298;28;20314;-72
2022/02/09 12:20:05;;;;;;;5.23;1.30;;;;;;;11.87;53.19;97307.44;5052412;28;20411;-72
2022/02/09 12:22:42;;;;;;;2.77;1.27;;;;;;;11.88;53.64;97307.25;5051902;28;20204;-72
2022/02/09 12:25:10;;;;;;;3.47;1.23;;;;;;;11.85;54.66;97304.09;5052766;28;21218;-72
2022/02/09 12:27:37;;;;;;;2.73;1.33;;;;;;;11.67;55.95;97311.28;5052397;28;20236;-72
2022/02/09 12:30:10;;;;;;;1.63;1.27;;;;;;;11.89;55.64;97308.94;5052020;28;20212;-72
2022/02/09 12:32:38;;;;;;;3.30;1.40;;;;;;;11.75;56.63;97309.53;5049423;28;20200;-72
2022/02/09 12:35:06;;;;;;;2.60;1.40;;;;;;;12.03;56.29;97302.19;5050920;28;20213;-72
2022/02/09 12:37:35;;;;;;;5.63;1.50;;;;;;;11.88;55.46;97299.34;5049557;28;20208;-72
2022/02/09 12:40:05;;;;;;;3.90;1.57;;;;;;;11.89;55.80;97294.88;5050393;28;20231;-72
2022/02/09 12:42:34;;;;;;;3.33;1.83;;;;;;;11.71;55.79;97286.22;5048789;28;21225;-72
2022/02/09 12:45:05;;;;;;;3.07;1.87;;;;;;;11.99;55.49;97277.09;5049802;28;20204;-72
2022/02/09 12:47:33;;;;;;;3.30;1.20;;;;;;;11.89;54.84;97276.38;5050210;28;20205;-72
2022/02/09 12:50:07;;;;;;;2.80;1.43;;;;;;;12.12;55.03;97274.81;5050363;28;20220;-72
2022/02/09 12:52:35;;;;;;;4.17;1.60;;;;;;;11.94;55.09;97271.44;5049049;28;20462;-72
2022/02/09 12:55:05;;;;;;;8.60;1.77;;;;;;;12.16;55.97;97272.50;5049888;28;20246;-73
2022/02/09 12:57:36;;;;;;;2.23;1.27;;;;;;;12.13;54.73;97266.75;5050158;28;20208;-72
2022/02/09 13:00:04;;;;;;;2.97;1.60;;;;;;;12.27;55.45;97263.44;5049023;28;20229;-73
2022/02/09 13:02:45;;;;;;;2.20;1.33;;;;;;;12.24;55.10;97264.63;5049625;28;20211;-72
2022/02/09 13:05:13;;;;;;;3.43;1.43;;;;;;;12.15;55.08;97251.53;5049616;28;20204;-72
2022/02/09 13:07:39;;;;;;;5.27;1.43;;;;;;;12.15;54.99;97254.19;5049444;28;20212;-72
2022/02/09 13:10:08;;;;;;;2.03;1.17;;;;;;;12.05;55.48;97260.59;5044220;28;20229;-73
2022/02/09 13:12:41;;;;;;;2.07;1.40;;;;;;;12.15;55.16;97254.19;5032667;28;20205;-72
2022/02/09 13:15:15;;;;;;;3.70;1.57;;;;;;;12.18;56.32;97254.69;5035555;28;20255;-72
2022/02/09 13:18:11;;;;;;;1.43;1.00;;;;;;;12.67;54.83;97250.28;5035917;28;20202;-73
2022/02/09 13:23:43;;;;;;;3.03;1.63;;;;;;;12.65;54.13;97239.84;5034255;28;20209;-72
2022/02/09 13:26:34;;;;;;;1.90;1.07;;;;;;;12.48;54.73;97240.84;5037908;28;20228;-72
2022/02/09 14:53:24;;;;;;;3.00;1.48;;;;;;;13.22;53.17;97159.44;5035365;28;20684;-73
2022/02/09 14:56:01;;;;;;;3.97;1.25;;;;;;;13.30;51.91;97162.03;5035746;28;20315;-72
2022/02/09 14:58:31;;;;;;;2.08;0.93;;;;;;;13.34;51.02;97163.34;5034703;28;20266;-72
2022/02/09 15:01:05;;;;;;;3.38;1.27;;;;;;;13.26;49.92;97168.69;5036236;28;20898;-73
2022/02/09 15:03:51;;;;;;;1.73;1.02;;;;;;;13.24;50.39;97170.66;5034279;28;20910;-73
2022/02/09 15:09:20;;;;;;;5.18;1.73;;;;;;;13.37;50.33;97165.69;5034803;28;20271;-73
2022/02/09 15:11:58;;;;;;;2.80;1.50;;;;;;;13.31;50.26;97153.94;5034956;28;20850;-72
2022/02/09 15:14:31;;;;;;;5.40;1.38;;;;;;;13.27;50.79;97163.22;5031540;28;20740;-72
2022/02/09 15:17:19;;;;;;;2.10;1.25;;;;;;;13.64;48.60;97158.91;5034592;28;20213;-72
2022/02/09 15:20:09;;;;;;;4.53;1.30;;;;;;;13.39;47.52;97161.84;5036105;28;20232;-73
2022/02/09 15:22:38;;;;;;;2.50;0.85;;;;;;;13.45;47.84;97161.16;5035990;28;20201;-73
2022/02/09 15:25:13;;;;;;;4.80;1.15;;;;;;;13.74;46.63;97159.50;5036416;28;20731;-72
2022/02/09 15:27:39;;;;;;;3.13;1.40;;;;;;;14.45;45.48;97157.41;5036477;28;20200;-72
2022/02/09 15:30:07;;;;;;;1.73;1.20;;;;;;;14.83;43.84;97160.69;5036457;28;20225;-73
2022/02/09 15:32:39;;;;;;;5.35;1.48;;;;;;;14.65;43.86;97157.53;5035733;28;20209;-73
2022/02/09 15:35:12;;;;;;;4.28;1.20;;;;;;;14.18;44.62;97160.59;5036935;28;20205;-73
2022/02/09 15:37:45;;;;;;;3.20;1.05;;;;;;;13.66;44.66;97156.91;5036350;28;20294;-73
2022/02/09 15:40:24;;;;;;;2.42;0.90;;;;;;;13.43;45.68;97150.75;5036389;28;20228;-74
2022/02/09 15:56:45;;;;;;;1.90;1.00;;;;;;;12.37;45.79;97155.75;5035459;28;20262;-73
2022/02/09 15:59:36;;;;;;;2.78;1.20;;;;;;;12.46;46.49;97158.25;5035472;28;20233;-73
2022/02/09 16:10:38;;;;;;;1.77;1.37;;;;;;;11.81;49.51;97145.16;5035186;28;20216;-72
2022/02/09 16:24:27;;;;;;;2.17;1.30;;;;;;;11.12;53.50;97151.66;5034907;28;20212;-72
2022/02/09 16:37:55;;;;;;;9.40;3.90;;;;;;;10.76;54.03;97154.59;5034619;28;20201;-71
2022/02/09 16:46:05;;;;;;;13.20;2.70;;;;;;;10.27;54.04;97156.25;5036958;28;20296;-71
2022/02/09 16:48:32;;;;;;;8.43;3.23;;;;;;;10.10;54.26;97150.00;5038397;28;20240;-72
2022/02/09 16:51:01;;;;;;;17.00;3.27;;;;;;;10.06;54.79;97153.94;5039129;28;20212;-71
2022/02/09 16:53:46;;;;;;;7.10;2.63;;;;;;;10.05;54.98;97151.44;5038307;28;20201;-72
2022/02/09 16:56:35;;;;;;;5.13;2.40;;;;;;;9.56;55.75;97159.00;5038761;28;20364;-72
2022/02/09 17:15:40;;;;;;;9.73;2.97;;;;;;;8.55;62.38;97157.41;5036400;28;20435;-71
2022/02/09 17:20:51;;;;;;;15.27;2.00;;;;;;;8.29;63.01;97152.09;5037613;28;20236;-71
2022/02/09 17:23:18;;;;;;;5.40;2.20;;;;;;;8.10;64.06;97152.88;5033667;28;20684;-71
2022/02/09 17:25:46;;;;;;;5.63;1.90;;;;;;;7.99;64.69;97149.56;5038310;28;20205;-71
2022/02/09 17:28:16;;;;;;;7.43;2.50;;;;;;;7.51;66.10;97148.75;5035188;28;20673;-71
2022/02/09 17:31:02;;;;;;;6.47;2.80;;;;;;;7.54;65.68;97153.72;5034282;28;21385;-71
2022/02/09 17:33:40;;;;;;;5.07;1.90;;;;;;;7.40;66.55;97150.66;5036266;28;20308;-71
2022/02/09 17:36:13;;;;;;;5.80;2.67;;;;;;;7.24;66.82;97150.34;5037337;28;20201;-71
2022/02/09 17:38:46;;;;;;;6.83;2.30;;;;;;;7.06;67.90;97156.38;5036864;28;20225;-71
2022/02/09 17:57:42;;;;;;;1.60;1.23;;;;;;;6.77;69.48;97152.81;5035524;28;20625;-70
2022/02/09 18:00:14;;;;;;;2.87;1.93;;;;;;;6.82;69.23;97150.63;5035681;28;21178;-70
2022/02/09 18:02:41;;;;;;;2.17;0.93;;;;;;;6.44;69.17;97167.97;5035627;28;20205;-73
2022/02/09 18:05:15;;;;;;;2.57;1.33;;;;;;;6.48;69.73;97159.72;5036602;28;20205;-71
2022/02/09 18:07:43;;;;;;;4.77;2.43;;;;;;;6.41;70.29;97163.00;5035862;28;20675;-71
2022/02/09 18:10:18;;;;;;;5.47;1.40;;;;;;;6.35;70.11;97169.56;5036252;28;20595;-70
2022/02/09 18:13:00;;;;;;;3.47;1.70;;;;;;;6.44;70.23;97165.34;5036137;28;20215;-70
2022/02/09 18:15:45;;;;;;;2.70;1.20;;;;;;;6.17;70.20;97165.88;5036714;28;20262;-71
2022/02/09 18:27:07;;;;;;;4.30;1.97;;;;;;;6.09;71.20;97149.16;5036319;28;20845;-70
2022/02/09 18:29:28;;;;;;;6.50;2.43;;;;;;;6.11;71.23;97152.50;5035308;28;20236;-71
2022/02/09 18:32:11;;;;;;;3.77;2.87;;;;;;;5.81;71.46;97149.78;5036347;28;20197;-70
2022/02/09 18:43:04;;;;;;;5.77;1.63;;;;;;;5.79;71.95;97137.78;5052996;27;20559;-71
2022/02/09 18:45:39;;;;;;;8.73;3.07;;;;;;;5.55;72.61;97139.78;5051632;28;20231;-71
2022/02/09 18:48:32;;;;;;;5.83;2.90;;;;;;;5.65;72.33;97138.03;5051754;28;20718;-71
2022/02/09 18:59:30;;;;;;;3.27;2.40;;;;;;;5.68;71.73;97140.44;4985362;28;20370;-71
2022/02/09 19:02:07;;;;;;;4.27;1.83;;;;;;;5.57;72.02;97140.47;5022335;28;20671;-71
2022/02/09 19:04:40;;;;;;;7.90;2.57;;;;;;;5.51;72.66;97135.72;5031438;28;20205;-72
2022/02/09 19:18:30;;;;;;;2.30;1.70;;;;;;;5.24;73.48;97135.34;5009306;28;20216;-71
2022/02/09 19:26:13;;;;;;;3.22;1.95;;;;;;;5.06;74.61;97131.59;5030898;28;20122;-72
2022/02/09 19:26:45;;;;;;;2.63;1.53;;;;;;;5.08;73.54;97129.69;5031358;28;20220;-71
2022/02/09 19:32:19;;;;;;;13.80;2.00;;;;;;;4.97;74.55;97132.31;5031336;28;20282;-70
2022/02/09 19:41:00;;;;;;;2.20;1.30;;;;;;;4.78;74.60;97128.69;5030705;28;21149;-70
2022/02/09 19:46:18;;;;;;;3.63;1.97;;;;;;;4.71;74.50;97127.50;5030598;28;20205;-71
2022/02/09 19:48:54;;;;;;;2.40;1.40;;;;;;;4.95;74.33;97128.16;5031383;28;20220;-71
2022/02/09 19:51:35;;;;;;;1.43;1.10;;;;;;;4.77;74.10;97129.63;5030812;28;20682;-71
2022/02/09 19:54:09;;;;;;;1.63;1.17;;;;;;;4.81;74.90;97130.22;5019003;28;20212;-71
2022/02/09 19:56:37;;;;;;;3.60;1.63;;;;;;;4.62;74.81;97117.78;5017935;28;20202;-71
2022/02/09 19:59:13;;;;;;;2.30;0.93;;;;;;;4.78;74.95;97120.03;5017791;28;20233;-71
2022/02/09 20:01:40;;;;;;;2.07;1.40;;;;;;;4.57;75.35;97121.69;5017827;28;20225;-71
2022/02/09 20:04:08;;;;;;;3.10;1.93;;;;;;;4.75;75.24;97125.47;5016897;28;20921;-71
2022/02/09 20:06:35;;;;;;;2.77;1.00;;;;;;;4.54;75.11;97127.16;5017616;28;20206;-71
2022/02/09 20:09:02;;;;;;;2.87;2.00;;;;;;;4.35;75.59;97119.06;5017408;28;20234;-71
2022/02/09 20:11:29;;;;;;;8.87;2.00;;;;;;;4.35;75.13;97121.69;5017141;28;20213;-71
2022/02/09 20:13:55;;;;;;;4.87;2.13;;;;;;;4.33;75.91;97123.59;5017072;28;20212;-71
2022/02/09 20:16:22;;;;;;;2.50;1.50;;;;;;;4.33;76.20;97119.19;5017270;28;20217;-71
2022/02/09 20:18:49;;;;;;;1.83;1.73;;;;;;;4.23;76.80;97123.47;5017316;28;20614;-71
2022/02/09 20:21:19;;;;;;;2.77;2.20;;;;;;;4.17;78.73;97120.50;5015983;28;21030;-71
2022/02/09 20:23:46;;;;;;;7.60;1.87;;;;;;;4.32;78.47;97116.72;5016321;28;20202;-71
2022/02/09 20:26:14;;;;;;;4.73;1.70;;;;;;;4.29;78.31;97115.16;5016986;28;20543;-71
2022/02/09 20:28:45;;;;;;;8.50;1.87;;;;;;;4.18;78.48;97114.34;5016466;28;20228;-71
2022/02/09 20:31:16;;;;;;;3.13;1.60;;;;;;;4.10;79.50;97116.69;5016642;28;20214;-71
2022/02/09 20:33:48;;;;;;;2.23;1.80;;;;;;;4.25;79.34;97115.50;5014855;28;20205;-71
2022/02/09 20:36:17;;;;;;;2.37;1.67;;;;;;;4.24;79.10;97104.25;5016458;28;20208;-71
2022/02/09 20:38:46;;;;;;;6.63;1.87;;;;;;;4.26;79.52;97111.97;5015068;28;20290;-71
2022/02/09 20:41:14;;;;;;;3.17;2.37;;;;;;;4.20;79.77;97112.44;5015884;28;20237;-70
2022/02/09 20:43:45;;;;;;;7.33;1.90;;;;;;;4.09;80.16;97117.63;5015215;28;20361;-71